sensor_id;sensor_type;location;lat;lon;timestamp;P1;durP1;ratioP1;P2;durP2;ratioP2
4049;SDS011;2039;50.894;6.888;2022-08-25T00:01:33;67.67;;;7.10;;
4049;SDS011;2039;50.894;6.888;2022-08-25T00:04:02;67.87;;;6.57;;
4049;SDS011;2039;50.894;6.888;2022-08-25T00:06:30;69.50;;;7.67;;
4049;SDS011;2039;50.894;6.888;2022-08-25T00:08:56;67.80;;;6.13;;
4049;SDS011;2039;50.894;6.888;2022-08-25T00:11:26;68.53;;;6.60;;
4049;SDS011;2039;50.894;6.888;2022-08-25T00:13:56;69.53;;;5.63;;
4049;SDS011;2039;50.894;6.888;2022-08-25T00:16:29;68.27;;;6.20;;
4049;SDS011;2039;50.894;6.888;2022-08-25T00:18:58;69.97;;;5.63;;
4049;SDS011;2039;50.894;6.888;2022-08-25T00:21:27;66.97;;;5.80;;
4049;SDS011;2039;50.894;6.888;2022-08-25T00:23:55;69.57;;;6.63;;
4049;SDS011;2039;50.894;6.888;2022-08-25T00:26:21;68.70;;;5.63;;
4049;SDS011;2039;50.894;6.888;2022-08-25T00:28:47;67.90;;;6.20;;
4049;SDS011;2039;50.894;6.888;2022-08-25T00:31:14;67.80;;;7.63;;
4049;SDS011;2039;50.894;6.888;2022-08-25T00:33:42;74.53;;;7.13;;
4049;SDS011;2039;50.894;6.888;2022-08-25T00:36:09;69.70;;;7.43;;
4049;SDS011;2039;50.894;6.888;2022-08-25T00:38:37;67.17;;;6.60;;
4049;SDS011;2039;50.894;6.888;2022-08-25T00:41:07;67.47;;;6.97;;
4049;SDS011;2039;50.894;6.888;2022-08-25T00:46:15;72.10;;;7.57;;
4049;SDS011;2039;50.894;6.888;2022-08-25T00:48:56;70.97;;;8.20;;
4049;SDS011;2039;50.894;6.888;2022-08-25T00:51:38;71.73;;;6.63;;
4049;SDS011;2039;50.894;6.888;2022-08-25T00:54:18;68.50;;;6.20;;
4049;SDS011;2039;50.894;6.888;2022-08-25T00:56:47;69.70;;;6.80;;
4049;SDS011;2039;50.894;6.888;2022-08-25T00:59:15;68.20;;;6.33;;
4049;SDS011;2039;50.894;6.888;2022-08-25T01:01:43;68.87;;;6.43;;
4049;SDS011;2039;50.894;6.888;2022-08-25T01:04:09;67.20;;;6.53;;
4049;SDS011;2039;50.894;6.888;2022-08-25T01:06:36;68.10;;;7.17;;
4049;SDS011;2039;50.894;6.888;2022-08-25T01:09:05;68.87;;;6.07;;
4049;SDS011;2039;50.894;6.888;2022-08-25T01:11:31;69.57;;;6.47;;
4049;SDS011;2039;50.894;6.888;2022-08-25T01:13:58;73.17;;;7.80;;
4049;SDS011;2039;50.894;6.888;2022-08-25T01:16:30;66.50;;;6.40;;
4049;SDS011;2039;50.894;6.888;2022-08-25T01:19:00;69.87;;;6.07;;
4049;SDS011;2039;50.894;6.888;2022-08-25T01:21:29;69.47;;;6.60;;
4049;SDS011;2039;50.894;6.888;2022-08-25T01:24:01;69.00;;;5.63;;
4049;SDS011;2039;50.894;6.888;2022-08-25T01:26:28;70.10;;;5.70;;
4049;SDS011;2039;50.894;6.888;2022-08-25T01:28:59;67.47;;;5.23;;
4049;SDS011;2039;50.894;6.888;2022-08-25T01:31:45;68.97;;;5.63;;
4049;SDS011;2039;50.894;6.888;2022-08-25T01:34:12;68.37;;;6.17;;
4049;SDS011;2039;50.894;6.888;2022-08-25T01:36:39;67.57;;;5.60;;
4049;SDS011;2039;50.894;6.888;2022-08-25T01:39:07;68.37;;;5.20;;
4049;SDS011;2039;50.894;6.888;2022-08-25T01:43:59;74.83;;;5.77;;
4049;SDS011;2039;50.894;6.888;2022-08-25T01:46:26;67.50;;;4.63;;
4049;SDS011;2039;50.894;6.888;2022-08-25T01:48:52;72.13;;;5.07;;
4049;SDS011;2039;50.894;6.888;2022-08-25T01:51:19;66.97;;;4.40;;
4049;SDS011;2039;50.894;6.888;2022-08-25T01:53:47;68.10;;;4.30;;
4049;SDS011;2039;50.894;6.888;2022-08-25T01:56:14;68.37;;;4.60;;
4049;SDS011;2039;50.894;6.888;2022-08-25T01:58:42;69.33;;;5.00;;
4049;SDS011;2039;50.894;6.888;2022-08-25T02:01:11;67.00;;;4.83;;
4049;SDS011;2039;50.894;6.888;2022-08-25T02:03:41;66.70;;;3.70;;
4049;SDS011;2039;50.894;6.888;2022-08-25T02:06:16;66.03;;;3.67;;
4049;SDS011;2039;50.894;6.888;2022-08-25T02:08:51;67.53;;;4.43;;
4049;SDS011;2039;50.894;6.888;2022-08-25T02:11:18;65.90;;;3.40;;
4049;SDS011;2039;50.894;6.888;2022-08-25T02:13:44;68.90;;;5.50;;
4049;SDS011;2039;50.894;6.888;2022-08-25T02:16:10;67.40;;;4.53;;
4049;SDS011;2039;50.894;6.888;2022-08-25T02:18:42;68.40;;;4.57;;
4049;SDS011;2039;50.894;6.888;2022-08-25T02:21:11;68.50;;;4.07;;
4049;SDS011;2039;50.894;6.888;2022-08-25T02:23:37;67.60;;;4.63;;
4049;SDS011;2039;50.894;6.888;2022-08-25T02:26:04;67.27;;;4.63;;
4049;SDS011;2039;50.894;6.888;2022-08-25T02:28:29;67.50;;;4.80;;
4049;SDS011;2039;50.894;6.888;2022-08-25T02:30:55;74.47;;;5.00;;
4049;SDS011;2039;50.894;6.888;2022-08-25T02:33:21;69.77;;;4.50;;
4049;SDS011;2039;50.894;6.888;2022-08-25T02:35:47;66.97;;;4.90;;
4049;SDS011;2039;50.894;6.888;2022-08-25T02:38:12;67.13;;;5.00;;
4049;SDS011;2039;50.894;6.888;2022-08-25T02:40:38;66.80;;;4.87;;
4049;SDS011;2039;50.894;6.888;2022-08-25T02:43:10;66.80;;;5.07;;
4049;SDS011;2039;50.894;6.888;2022-08-25T02:45:36;67.27;;;5.00;;
4049;SDS011;2039;50.894;6.888;2022-08-25T02:48:02;67.90;;;4.60;;
4049;SDS011;2039;50.894;6.888;2022-08-25T02:50:28;67.67;;;4.80;;
4049;SDS011;2039;50.894;6.888;2022-08-25T02:52:54;71.37;;;5.53;;
4049;SDS011;2039;50.894;6.888;2022-08-25T02:55:19;67.07;;;4.90;;
4049;SDS011;2039;50.894;6.888;2022-08-25T02:57:48;68.07;;;5.03;;
4049;SDS011;2039;50.894;6.888;2022-08-25T03:00:14;67.57;;;4.37;;
4049;SDS011;2039;50.894;6.888;2022-08-25T03:02:41;67.97;;;4.93;;
4049;SDS011;2039;50.894;6.888;2022-08-25T03:05:08;69.50;;;5.80;;
4049;SDS011;2039;50.894;6.888;2022-08-25T03:07:35;66.90;;;4.70;;
4049;SDS011;2039;50.894;6.888;2022-08-25T03:10:06;68.03;;;5.47;;
4049;SDS011;2039;50.894;6.888;2022-08-25T03:12:40;68.47;;;5.10;;
4049;SDS011;2039;50.894;6.888;2022-08-25T03:15:09;69.80;;;4.63;;
4049;SDS011;2039;50.894;6.888;2022-08-25T03:17:40;68.20;;;5.07;;
4049;SDS011;2039;50.894;6.888;2022-08-25T03:20:06;68.47;;;5.67;;
4049;SDS011;2039;50.894;6.888;2022-08-25T03:22:33;68.57;;;5.77;;
4049;SDS011;2039;50.894;6.888;2022-08-25T03:24:58;68.23;;;5.03;;
4049;SDS011;2039;50.894;6.888;2022-08-25T03:27:44;70.70;;;5.83;;
4049;SDS011;2039;50.894;6.888;2022-08-25T03:30:10;68.97;;;5.97;;
4049;SDS011;2039;50.894;6.888;2022-08-25T03:32:37;67.37;;;5.33;;
4049;SDS011;2039;50.894;6.888;2022-08-25T03:35:03;68.77;;;6.53;;
4049;SDS011;2039;50.894;6.888;2022-08-25T03:37:29;71.37;;;6.27;;
4049;SDS011;2039;50.894;6.888;2022-08-25T03:39:55;68.67;;;6.70;;
4049;SDS011;2039;50.894;6.888;2022-08-25T03:42:21;68.87;;;6.67;;
4049;SDS011;2039;50.894;6.888;2022-08-25T03:44:47;69.73;;;7.60;;
4049;SDS011;2039;50.894;6.888;2022-08-25T03:47:13;68.77;;;8.97;;
4049;SDS011;2039;50.894;6.888;2022-08-25T03:49:39;70.17;;;8.50;;
4049;SDS011;2039;50.894;6.888;2022-08-25T03:52:05;71.20;;;8.47;;
4049;SDS011;2039;50.894;6.888;2022-08-25T03:54:31;72.03;;;7.83;;
4049;SDS011;2039;50.894;6.888;2022-08-25T03:56:56;69.57;;;9.80;;
4049;SDS011;2039;50.894;6.888;2022-08-25T03:59:22;70.23;;;10.57;;
4049;SDS011;2039;50.894;6.888;2022-08-25T04:01:48;71.80;;;10.90;;
4049;SDS011;2039;50.894;6.888;2022-08-25T04:04:14;70.17;;;11.47;;
4049;SDS011;2039;50.894;6.888;2022-08-25T04:06:41;70.37;;;12.53;;
4049;SDS011;2039;50.894;6.888;2022-08-25T04:09:08;69.80;;;11.50;;
4049;SDS011;2039;50.894;6.888;2022-08-25T04:11:34;74.57;;;12.80;;
4049;SDS011;2039;50.894;6.888;2022-08-25T04:14:00;70.90;;;12.97;;
4049;SDS011;2039;50.894;6.888;2022-08-25T04:16:30;70.77;;;13.30;;
4049;SDS011;2039;50.894;6.888;2022-08-25T04:18:58;73.27;;;12.00;;
4049;SDS011;2039;50.894;6.888;2022-08-25T04:21:26;68.87;;;12.00;;
4049;SDS011;2039;50.894;6.888;2022-08-25T04:23:53;74.10;;;10.27;;
4049;SDS011;2039;50.894;6.888;2022-08-25T04:26:24;70.77;;;9.50;;
4049;SDS011;2039;50.894;6.888;2022-08-25T04:28:56;69.60;;;10.47;;
4049;SDS011;2039;50.894;6.888;2022-08-25T04:31:24;71.33;;;10.73;;
4049;SDS011;2039;50.894;6.888;2022-08-25T04:33:50;69.50;;;9.10;;
4049;SDS011;2039;50.894;6.888;2022-08-25T04:36:17;70.10;;;9.47;;
4049;SDS011;2039;50.894;6.888;2022-08-25T04:38:44;70.13;;;7.73;;
4049;SDS011;2039;50.894;6.888;2022-08-25T04:41:10;70.10;;;8.77;;
4049;SDS011;2039;50.894;6.888;2022-08-25T04:43:38;69.13;;;8.03;;
4049;SDS011;2039;50.894;6.888;2022-08-25T04:46:06;69.80;;;8.03;;
4049;SDS011;2039;50.894;6.888;2022-08-25T04:48:38;70.00;;;8.30;;
4049;SDS011;2039;50.894;6.888;2022-08-25T04:51:05;70.33;;;8.70;;
4049;SDS011;2039;50.894;6.888;2022-08-25T04:53:32;69.50;;;10.10;;
4049;SDS011;2039;50.894;6.888;2022-08-25T04:55:59;71.10;;;9.67;;
4049;SDS011;2039;50.894;6.888;2022-08-25T04:58:25;72.87;;;10.20;;
4049;SDS011;2039;50.894;6.888;2022-08-25T05:00:51;70.47;;;9.37;;
4049;SDS011;2039;50.894;6.888;2022-08-25T05:03:17;73.70;;;11.50;;
4049;SDS011;2039;50.894;6.888;2022-08-25T05:05:43;70.97;;;11.83;;
4049;SDS011;2039;50.894;6.888;2022-08-25T05:08:08;71.93;;;12.13;;
4049;SDS011;2039;50.894;6.888;2022-08-25T05:10:37;71.27;;;12.73;;
4049;SDS011;2039;50.894;6.888;2022-08-25T05:13:04;70.40;;;12.87;;
4049;SDS011;2039;50.894;6.888;2022-08-25T05:15:30;77.83;;;12.40;;
4049;SDS011;2039;50.894;6.888;2022-08-25T05:18:14;69.40;;;12.33;;
4049;SDS011;2039;50.894;6.888;2022-08-25T05:20:44;73.57;;;14.13;;
4049;SDS011;2039;50.894;6.888;2022-08-25T05:23:10;68.60;;;11.53;;
4049;SDS011;2039;50.894;6.888;2022-08-25T05:25:36;72.83;;;13.60;;
4049;SDS011;2039;50.894;6.888;2022-08-25T05:28:02;73.40;;;12.73;;
4049;SDS011;2039;50.894;6.888;2022-08-25T05:30:29;71.37;;;12.10;;
4049;SDS011;2039;50.894;6.888;2022-08-25T05:32:54;70.47;;;11.80;;
4049;SDS011;2039;50.894;6.888;2022-08-25T05:35:21;72.00;;;12.07;;
4049;SDS011;2039;50.894;6.888;2022-08-25T05:37:47;75.97;;;12.57;;
4049;SDS011;2039;50.894;6.888;2022-08-25T05:40:13;73.67;;;12.47;;
4049;SDS011;2039;50.894;6.888;2022-08-25T05:42:38;76.27;;;12.40;;
4049;SDS011;2039;50.894;6.888;2022-08-25T05:45:05;71.30;;;10.60;;
4049;SDS011;2039;50.894;6.888;2022-08-25T05:47:32;70.77;;;11.20;;
4049;SDS011;2039;50.894;6.888;2022-08-25T05:49:58;80.10;;;10.90;;
4049;SDS011;2039;50.894;6.888;2022-08-25T05:52:25;70.70;;;10.87;;
4049;SDS011;2039;50.894;6.888;2022-08-25T05:54:52;73.07;;;11.50;;
4049;SDS011;2039;50.894;6.888;2022-08-25T05:57:18;70.97;;;10.73;;
4049;SDS011;2039;50.894;6.888;2022-08-25T05:59:43;77.97;;;10.10;;
4049;SDS011;2039;50.894;6.888;2022-08-25T06:02:09;71.63;;;9.27;;
4049;SDS011;2039;50.894;6.888;2022-08-25T06:04:53;69.47;;;9.93;;
4049;SDS011;2039;50.894;6.888;2022-08-25T06:07:19;76.13;;;10.67;;
4049;SDS011;2039;50.894;6.888;2022-08-25T06:09:45;75.10;;;10.07;;
4049;SDS011;2039;50.894;6.888;2022-08-25T06:12:13;71.27;;;10.10;;
4049;SDS011;2039;50.894;6.888;2022-08-25T06:14:39;75.90;;;11.87;;
4049;SDS011;2039;50.894;6.888;2022-08-25T06:17:05;70.43;;;9.63;;
4049;SDS011;2039;50.894;6.888;2022-08-25T06:19:31;69.80;;;9.77;;
4049;SDS011;2039;50.894;6.888;2022-08-25T06:21:57;70.80;;;10.47;;
4049;SDS011;2039;50.894;6.888;2022-08-25T06:24:24;69.87;;;10.60;;
4049;SDS011;2039;50.894;6.888;2022-08-25T06:26:51;73.30;;;9.40;;
4049;SDS011;2039;50.894;6.888;2022-08-25T06:29:17;69.47;;;9.53;;
4049;SDS011;2039;50.894;6.888;2022-08-25T06:31:43;71.47;;;10.83;;
4049;SDS011;2039;50.894;6.888;2022-08-25T06:34:10;71.73;;;10.13;;
4049;SDS011;2039;50.894;6.888;2022-08-25T06:36:37;70.20;;;12.07;;
4049;SDS011;2039;50.894;6.888;2022-08-25T06:39:04;68.70;;;8.47;;
4049;SDS011;2039;50.894;6.888;2022-08-25T06:41:30;67.80;;;8.03;;
4049;SDS011;2039;50.894;6.888;2022-08-25T06:43:56;72.27;;;8.27;;
4049;SDS011;2039;50.894;6.888;2022-08-25T06:46:24;75.17;;;8.87;;
4049;SDS011;2039;50.894;6.888;2022-08-25T06:48:51;71.67;;;9.40;;
4049;SDS011;2039;50.894;6.888;2022-08-25T06:51:19;69.50;;;9.27;;
4049;SDS011;2039;50.894;6.888;2022-08-25T06:53:46;72.30;;;9.00;;
4049;SDS011;2039;50.894;6.888;2022-08-25T06:56:13;74.77;;;10.90;;
4049;SDS011;2039;50.894;6.888;2022-08-25T06:58:40;68.40;;;9.33;;
4049;SDS011;2039;50.894;6.888;2022-08-25T07:01:13;69.57;;;10.43;;
4049;SDS011;2039;50.894;6.888;2022-08-25T07:03:41;70.20;;;9.07;;
4049;SDS011;2039;50.894;6.888;2022-08-25T07:06:07;80.97;;;7.73;;
4049;SDS011;2039;50.894;6.888;2022-08-25T07:08:34;71.27;;;8.57;;
4049;SDS011;2039;50.894;6.888;2022-08-25T07:11:05;69.17;;;7.90;;
4049;SDS011;2039;50.894;6.888;2022-08-25T07:13:31;74.77;;;8.10;;
4049;SDS011;2039;50.894;6.888;2022-08-25T07:15:57;69.87;;;7.97;;
4049;SDS011;2039;50.894;6.888;2022-08-25T07:18:23;72.10;;;7.03;;
4049;SDS011;2039;50.894;6.888;2022-08-25T07:20:50;71.53;;;7.87;;
4049;SDS011;2039;50.894;6.888;2022-08-25T07:23:17;68.97;;;8.90;;
4049;SDS011;2039;50.894;6.888;2022-08-25T07:25:45;71.83;;;8.70;;
4049;SDS011;2039;50.894;6.888;2022-08-25T07:28:12;70.80;;;8.00;;
4049;SDS011;2039;50.894;6.888;2022-08-25T07:30:38;70.60;;;10.30;;
4049;SDS011;2039;50.894;6.888;2022-08-25T07:33:04;70.13;;;8.53;;
4049;SDS011;2039;50.894;6.888;2022-08-25T07:35:30;72.07;;;9.20;;
4049;SDS011;2039;50.894;6.888;2022-08-25T07:37:57;69.07;;;9.10;;
4049;SDS011;2039;50.894;6.888;2022-08-25T07:40:27;72.17;;;8.97;;
4049;SDS011;2039;50.894;6.888;2022-08-25T07:42:56;71.57;;;9.90;;
4049;SDS011;2039;50.894;6.888;2022-08-25T07:45:24;72.47;;;8.60;;
4049;SDS011;2039;50.894;6.888;2022-08-25T07:47:59;73.23;;;8.80;;
4049;SDS011;2039;50.894;6.888;2022-08-25T07:50:28;71.43;;;9.97;;
4049;SDS011;2039;50.894;6.888;2022-08-25T07:52:55;71.80;;;7.67;;
4049;SDS011;2039;50.894;6.888;2022-08-25T07:55:22;70.60;;;9.90;;
4049;SDS011;2039;50.894;6.888;2022-08-25T07:57:50;76.03;;;7.50;;
4049;SDS011;2039;50.894;6.888;2022-08-25T08:00:16;71.80;;;9.40;;
4049;SDS011;2039;50.894;6.888;2022-08-25T08:02:42;68.80;;;8.83;;
4049;SDS011;2039;50.894;6.888;2022-08-25T08:05:09;71.00;;;10.20;;
4049;SDS011;2039;50.894;6.888;2022-08-25T08:07:36;68.50;;;8.50;;
4049;SDS011;2039;50.894;6.888;2022-08-25T08:10:03;69.17;;;8.40;;
4049;SDS011;2039;50.894;6.888;2022-08-25T08:12:30;68.60;;;7.67;;
4049;SDS011;2039;50.894;6.888;2022-08-25T08:14:58;67.90;;;7.30;;
4049;SDS011;2039;50.894;6.888;2022-08-25T08:17:24;70.70;;;9.90;;
4049;SDS011;2039;50.894;6.888;2022-08-25T08:19:49;70.77;;;9.20;;
4049;SDS011;2039;50.894;6.888;2022-08-25T08:22:16;70.60;;;7.73;;
4049;SDS011;2039;50.894;6.888;2022-08-25T08:24:42;71.10;;;7.50;;
4049;SDS011;2039;50.894;6.888;2022-08-25T08:27:10;70.37;;;8.33;;
4049;SDS011;2039;50.894;6.888;2022-08-25T08:29:37;71.17;;;7.63;;
4049;SDS011;2039;50.894;6.888;2022-08-25T08:32:05;68.47;;;7.87;;
4049;SDS011;2039;50.894;6.888;2022-08-25T08:34:34;70.27;;;7.40;;
4049;SDS011;2039;50.894;6.888;2022-08-25T08:37:00;71.43;;;7.70;;
4049;SDS011;2039;50.894;6.888;2022-08-25T08:39:27;70.03;;;6.50;;
4049;SDS011;2039;50.894;6.888;2022-08-25T08:55:20;68.70;;;5.00;;
4049;SDS011;2039;50.894;6.888;2022-08-25T08:57:54;69.40;;;5.73;;
4049;SDS011;2039;50.894;6.888;2022-08-25T09:00:22;67.60;;;5.57;;
4049;SDS011;2039;50.894;6.888;2022-08-25T09:05:19;68.97;;;4.80;;
4049;SDS011;2039;50.894;6.888;2022-08-25T09:07:55;69.57;;;4.93;;
4049;SDS011;2039;50.894;6.888;2022-08-25T09:10:25;71.77;;;4.50;;
4049;SDS011;2039;50.894;6.888;2022-08-25T09:13:10;69.53;;;4.70;;
4049;SDS011;2039;50.894;6.888;2022-08-25T09:15:57;68.77;;;4.57;;
4049;SDS011;2039;50.894;6.888;2022-08-25T09:19:02;68.17;;;4.50;;
4049;SDS011;2039;50.894;6.888;2022-08-25T09:21:45;71.57;;;5.37;;
4049;SDS011;2039;50.894;6.888;2022-08-25T09:32:41;68.00;;;4.87;;
4049;SDS011;2039;50.894;6.888;2022-08-25T09:35:20;68.33;;;5.00;;
4049;SDS011;2039;50.894;6.888;2022-08-25T09:38:03;68.00;;;4.67;;
4049;SDS011;2039;50.894;6.888;2022-08-25T09:40:33;69.13;;;4.33;;
4049;SDS011;2039;50.894;6.888;2022-08-25T09:43:01;68.30;;;4.63;;
4049;SDS011;2039;50.894;6.888;2022-08-25T09:45:38;69.70;;;4.27;;
4049;SDS011;2039;50.894;6.888;2022-08-25T09:48:19;68.43;;;4.30;;
4049;SDS011;2039;50.894;6.888;2022-08-25T09:50:45;68.33;;;4.33;;
4049;SDS011;2039;50.894;6.888;2022-08-25T09:53:13;68.57;;;3.63;;
4049;SDS011;2039;50.894;6.888;2022-08-25T09:55:40;66.40;;;3.90;;
4049;SDS011;2039;50.894;6.888;2022-08-25T09:58:13;67.77;;;4.97;;
4049;SDS011;2039;50.894;6.888;2022-08-25T10:00:44;67.57;;;5.10;;
4049;SDS011;2039;50.894;6.888;2022-08-25T10:06:24;71.73;;;5.83;;
4049;SDS011;2039;50.894;6.888;2022-08-25T10:08:54;70.20;;;5.70;;
4049;SDS011;2039;50.894;6.888;2022-08-25T10:13:51;66.63;;;4.40;;
4049;SDS011;2039;50.894;6.888;2022-08-25T10:16:28;68.20;;;4.40;;
4049;SDS011;2039;50.894;6.888;2022-08-25T10:19:06;68.27;;;4.20;;
4049;SDS011;2039;50.894;6.888;2022-08-25T10:22:00;68.80;;;4.10;;
4049;SDS011;2039;50.894;6.888;2022-08-25T10:24:32;67.73;;;4.10;;
4049;SDS011;2039;50.894;6.888;2022-08-25T10:29:37;67.00;;;3.90;;
4049;SDS011;2039;50.894;6.888;2022-08-25T10:35:12;68.20;;;4.80;;
4049;SDS011;2039;50.894;6.888;2022-08-25T10:43:27;72.37;;;3.53;;
4049;SDS011;2039;50.894;6.888;2022-08-25T10:54:06;67.30;;;4.67;;
4049;SDS011;2039;50.894;6.888;2022-08-25T10:56:50;68.47;;;5.10;;
4049;SDS011;2039;50.894;6.888;2022-08-25T10:59:35;69.50;;;4.60;;
4049;SDS011;2039;50.894;6.888;2022-08-25T11:04:58;69.63;;;4.60;;
4049;SDS011;2039;50.894;6.888;2022-08-25T11:07:32;68.07;;;4.93;;
4049;SDS011;2039;50.894;6.888;2022-08-25T11:10:06;68.50;;;4.27;;
4049;SDS011;2039;50.894;6.888;2022-08-25T11:12:49;68.37;;;3.53;;
4049;SDS011;2039;50.894;6.888;2022-08-25T11:18:12;70.40;;;3.50;;
4049;SDS011;2039;50.894;6.888;2022-08-25T11:20:40;70.03;;;3.47;;
4049;SDS011;2039;50.894;6.888;2022-08-25T11:23:16;70.30;;;4.30;;
4049;SDS011;2039;50.894;6.888;2022-08-25T11:25:50;67.93;;;3.77;;
4049;SDS011;2039;50.894;6.888;2022-08-25T11:31:20;66.77;;;3.23;;
4049;SDS011;2039;50.894;6.888;2022-08-25T11:33:49;72.50;;;4.30;;
4049;SDS011;2039;50.894;6.888;2022-08-25T11:36:29;68.30;;;3.30;;
4049;SDS011;2039;50.894;6.888;2022-08-25T11:45:05;68.00;;;5.37;;
4049;SDS011;2039;50.894;6.888;2022-08-25T11:50:08;68.07;;;4.80;;
4049;SDS011;2039;50.894;6.888;2022-08-25T11:55:45;70.40;;;7.30;;
4049;SDS011;2039;50.894;6.888;2022-08-25T11:58:16;71.70;;;9.60;;
4049;SDS011;2039;50.894;6.888;2022-08-25T12:01:05;71.00;;;8.90;;
4049;SDS011;2039;50.894;6.888;2022-08-25T12:27:29;69.27;;;3.47;;
4049;SDS011;2039;50.894;6.888;2022-08-25T12:30:01;69.90;;;3.73;;
4049;SDS011;2039;50.894;6.888;2022-08-25T12:40:52;68.00;;;3.60;;
4049;SDS011;2039;50.894;6.888;2022-08-25T12:43:31;68.37;;;3.43;;
4049;SDS011;2039;50.894;6.888;2022-08-25T12:46:31;70.27;;;4.30;;
4049;SDS011;2039;50.894;6.888;2022-08-25T12:51:55;69.07;;;3.47;;
4049;SDS011;2039;50.894;6.888;2022-08-25T12:57:24;67.90;;;3.53;;
4049;SDS011;2039;50.894;6.888;2022-08-25T12:59:52;67.97;;;4.47;;
4049;SDS011;2039;50.894;6.888;2022-08-25T13:10:49;69.30;;;3.70;;
4049;SDS011;2039;50.894;6.888;2022-08-25T13:16:17;72.17;;;4.10;;
4049;SDS011;2039;50.894;6.888;2022-08-25T13:18:45;71.00;;;3.87;;
4049;SDS011;2039;50.894;6.888;2022-08-25T13:21:18;70.50;;;3.80;;
4049;SDS011;2039;50.894;6.888;2022-08-25T13:23:45;68.03;;;3.67;;
4049;SDS011;2039;50.894;6.888;2022-08-25T13:26:14;68.30;;;3.50;;
4049;SDS011;2039;50.894;6.888;2022-08-25T13:28:56;67.17;;;3.70;;
4049;SDS011;2039;50.894;6.888;2022-08-25T13:31:24;68.90;;;3.63;;
4049;SDS011;2039;50.894;6.888;2022-08-25T13:33:56;68.30;;;3.93;;
4049;SDS011;2039;50.894;6.888;2022-08-25T13:36:24;68.67;;;4.17;;
4049;SDS011;2039;50.894;6.888;2022-08-25T13:39:12;69.20;;;4.03;;
4049;SDS011;2039;50.894;6.888;2022-08-25T13:41:43;70.47;;;4.13;;
4049;SDS011;2039;50.894;6.888;2022-08-25T13:44:18;70.10;;;4.23;;
4049;SDS011;2039;50.894;6.888;2022-08-25T13:46:45;69.47;;;4.33;;
4049;SDS011;2039;50.894;6.888;2022-08-25T13:49:23;68.10;;;3.87;;
4049;SDS011;2039;50.894;6.888;2022-08-25T13:51:50;71.27;;;4.20;;
4049;SDS011;2039;50.894;6.888;2022-08-25T13:54:30;69.37;;;3.80;;
4049;SDS011;2039;50.894;6.888;2022-08-25T13:57:44;67.13;;;3.67;;
4049;SDS011;2039;50.894;6.888;2022-08-25T14:00:03;68.47;;;3.43;;
4049;SDS011;2039;50.894;6.888;2022-08-25T14:02:43;69.20;;;3.30;;
4049;SDS011;2039;50.894;6.888;2022-08-25T14:05:31;67.97;;;3.43;;
4049;SDS011;2039;50.894;6.888;2022-08-25T14:08:00;67.93;;;3.23;;
4049;SDS011;2039;50.894;6.888;2022-08-25T14:15:36;69.90;;;3.77;;
4049;SDS011;2039;50.894;6.888;2022-08-25T14:18:04;67.90;;;3.10;;
4049;SDS011;2039;50.894;6.888;2022-08-25T14:20:46;68.47;;;3.33;;
4049;SDS011;2039;50.894;6.888;2022-08-25T14:23:17;69.73;;;4.00;;
4049;SDS011;2039;50.894;6.888;2022-08-25T14:25:50;69.60;;;3.60;;
4049;SDS011;2039;50.894;6.888;2022-08-25T14:28:18;68.10;;;3.43;;
4049;SDS011;2039;50.894;6.888;2022-08-25T14:30:53;68.37;;;4.03;;
4049;SDS011;2039;50.894;6.888;2022-08-25T14:33:24;67.57;;;3.20;;
4049;SDS011;2039;50.894;6.888;2022-08-25T14:35:53;69.37;;;3.43;;
4049;SDS011;2039;50.894;6.888;2022-08-25T14:38:22;67.93;;;3.37;;
4049;SDS011;2039;50.894;6.888;2022-08-25T14:40:48;70.63;;;3.40;;
4049;SDS011;2039;50.894;6.888;2022-08-25T14:43:14;69.37;;;3.40;;
4049;SDS011;2039;50.894;6.888;2022-08-25T14:45:41;67.90;;;3.13;;
4049;SDS011;2039;50.894;6.888;2022-08-25T14:48:11;68.77;;;3.63;;
4049;SDS011;2039;50.894;6.888;2022-08-25T14:50:44;67.57;;;3.27;;
4049;SDS011;2039;50.894;6.888;2022-08-25T14:53:10;69.20;;;3.63;;
4049;SDS011;2039;50.894;6.888;2022-08-25T14:55:36;69.93;;;3.33;;
4049;SDS011;2039;50.894;6.888;2022-08-25T14:58:02;69.20;;;3.30;;
4049;SDS011;2039;50.894;6.888;2022-08-25T15:00:28;71.00;;;3.80;;
4049;SDS011;2039;50.894;6.888;2022-08-25T15:02:55;68.20;;;3.40;;
4049;SDS011;2039;50.894;6.888;2022-08-25T15:05:22;71.90;;;3.27;;
4049;SDS011;2039;50.894;6.888;2022-08-25T15:07:51;68.30;;;3.27;;
4049;SDS011;2039;50.894;6.888;2022-08-25T15:10:37;68.97;;;3.00;;
4049;SDS011;2039;50.894;6.888;2022-08-25T15:13:03;68.83;;;3.20;;
4049;SDS011;2039;50.894;6.888;2022-08-25T15:15:30;68.40;;;3.13;;
4049;SDS011;2039;50.894;6.888;2022-08-25T15:17:57;68.30;;;3.37;;
4049;SDS011;2039;50.894;6.888;2022-08-25T15:20:23;69.17;;;3.33;;
4049;SDS011;2039;50.894;6.888;2022-08-25T15:22:49;68.20;;;3.40;;
4049;SDS011;2039;50.894;6.888;2022-08-25T15:25:15;69.00;;;3.13;;
4049;SDS011;2039;50.894;6.888;2022-08-25T15:27:40;68.47;;;3.30;;
4049;SDS011;2039;50.894;6.888;2022-08-25T15:30:06;69.27;;;3.10;;
4049;SDS011;2039;50.894;6.888;2022-08-25T15:32:33;68.27;;;2.87;;
4049;SDS011;2039;50.894;6.888;2022-08-25T15:34:58;68.10;;;2.90;;
4049;SDS011;2039;50.894;6.888;2022-08-25T15:37:26;67.27;;;3.73;;
4049;SDS011;2039;50.894;6.888;2022-08-25T15:39:51;68.27;;;2.90;;
4049;SDS011;2039;50.894;6.888;2022-08-25T15:42:17;69.47;;;3.33;;
4049;SDS011;2039;50.894;6.888;2022-08-25T15:44:43;72.23;;;4.10;;
4049;SDS011;2039;50.894;6.888;2022-08-25T15:47:09;69.00;;;3.70;;
4049;SDS011;2039;50.894;6.888;2022-08-25T15:49:35;68.40;;;3.80;;
4049;SDS011;2039;50.894;6.888;2022-08-25T15:52:01;68.10;;;3.40;;
4049;SDS011;2039;50.894;6.888;2022-08-25T15:54:30;68.00;;;4.27;;
4049;SDS011;2039;50.894;6.888;2022-08-25T15:56:56;67.40;;;3.30;;
4049;SDS011;2039;50.894;6.888;2022-08-25T15:59:22;69.67;;;3.37;;
4049;SDS011;2039;50.894;6.888;2022-08-25T16:01:48;67.97;;;3.27;;
4049;SDS011;2039;50.894;6.888;2022-08-25T16:04:17;73.20;;;4.50;;
4049;SDS011;2039;50.894;6.888;2022-08-25T16:06:44;69.30;;;4.03;;
4049;SDS011;2039;50.894;6.888;2022-08-25T16:09:10;69.10;;;4.00;;
4049;SDS011;2039;50.894;6.888;2022-08-25T16:11:36;68.27;;;4.10;;
4049;SDS011;2039;50.894;6.888;2022-08-25T16:14:03;69.33;;;3.10;;
4049;SDS011;2039;50.894;6.888;2022-08-25T16:16:29;68.00;;;3.30;;
4049;SDS011;2039;50.894;6.888;2022-08-25T16:18:55;70.80;;;3.80;;
4049;SDS011;2039;50.894;6.888;2022-08-25T16:21:23;68.50;;;3.10;;
4049;SDS011;2039;50.894;6.888;2022-08-25T16:23:52;68.20;;;3.30;;
4049;SDS011;2039;50.894;6.888;2022-08-25T16:26:19;72.00;;;2.87;;
4049;SDS011;2039;50.894;6.888;2022-08-25T16:28:45;70.60;;;3.13;;
4049;SDS011;2039;50.894;6.888;2022-08-25T16:31:11;67.97;;;2.63;;
4049;SDS011;2039;50.894;6.888;2022-08-25T16:33:44;69.50;;;2.83;;
4049;SDS011;2039;50.894;6.888;2022-08-25T16:36:11;69.90;;;2.90;;
4049;SDS011;2039;50.894;6.888;2022-08-25T16:38:39;69.50;;;2.90;;
4049;SDS011;2039;50.894;6.888;2022-08-25T16:41:13;71.80;;;2.60;;
4049;SDS011;2039;50.894;6.888;2022-08-25T16:43:41;68.73;;;2.87;;
4049;SDS011;2039;50.894;6.888;2022-08-25T16:46:20;66.90;;;2.57;;
4049;SDS011;2039;50.894;6.888;2022-08-25T16:48:58;67.93;;;2.83;;
4049;SDS011;2039;50.894;6.888;2022-08-25T16:51:24;70.23;;;3.03;;
4049;SDS011;2039;50.894;6.888;2022-08-25T16:53:50;67.87;;;2.90;;
4049;SDS011;2039;50.894;6.888;2022-08-25T16:56:34;67.60;;;2.73;;
4049;SDS011;2039;50.894;6.888;2022-08-25T16:59:01;68.00;;;2.73;;
4049;SDS011;2039;50.894;6.888;2022-08-25T17:01:28;68.20;;;2.60;;
4049;SDS011;2039;50.894;6.888;2022-08-25T17:03:58;72.30;;;2.97;;
4049;SDS011;2039;50.894;6.888;2022-08-25T17:06:26;68.37;;;3.47;;
4049;SDS011;2039;50.894;6.888;2022-08-25T17:08:53;69.63;;;3.10;;
4049;SDS011;2039;50.894;6.888;2022-08-25T17:11:23;67.37;;;2.90;;
4049;SDS011;2039;50.894;6.888;2022-08-25T17:13:59;68.07;;;3.10;;
4049;SDS011;2039;50.894;6.888;2022-08-25T17:16:29;67.40;;;2.73;;
4049;SDS011;2039;50.894;6.888;2022-08-25T17:18:57;67.80;;;3.50;;
4049;SDS011;2039;50.894;6.888;2022-08-25T17:21:25;70.50;;;3.70;;
4049;SDS011;2039;50.894;6.888;2022-08-25T17:23:58;67.43;;;3.47;;